createdAt,value
2022-08-26T00:01:56.921Z,26.77
2022-08-26T00:04:25.407Z,26.64
2022-08-26T00:06:53.548Z,26.64
2022-08-26T00:09:20.587Z,26.57
2022-08-26T00:11:47.403Z,26.53
2022-08-26T00:14:16.352Z,26.48
2022-08-26T00:16:47.851Z,26.52
2022-08-26T00:19:20.214Z,26.63
2022-08-26T00:21:48.743Z,26.58
2022-08-26T00:24:17.700Z,26.38
2022-08-26T00:26:44.766Z,26.51
2022-08-26T00:29:12.226Z,26.50
2022-08-26T00:31:40.774Z,26.52
2022-08-26T00:34:09.412Z,26.57
2022-08-26T00:36:37.032Z,26.48
2022-08-26T00:39:04.382Z,26.48
2022-08-26T00:41:31.034Z,26.48
2022-08-26T00:43:57.735Z,26.61
2022-08-26T00:46:32.146Z,26.58
2022-08-26T00:49:11.983Z,26.49
2022-08-26T00:51:48.374Z,26.63
2022-08-26T00:54:16.110Z,26.65
2022-08-26T00:56:57.840Z,26.79
2022-08-26T00:59:27.574Z,26.70
2022-08-26T01:01:54.434Z,26.67
2022-08-26T01:04:23.333Z,26.66
2022-08-26T01:06:52.759Z,26.58
2022-08-26T01:09:21.362Z,26.52
2022-08-26T01:11:49.957Z,26.50
2022-08-26T01:14:19.644Z,26.35
2022-08-26T01:16:48.116Z,26.34
2022-08-26T01:19:32.359Z,26.43
2022-08-26T01:22:50.481Z,26.52
2022-08-26T01:25:20.164Z,26.53
2022-08-26T01:27:47.010Z,26.48
2022-08-26T01:30:17.130Z,26.61
2022-08-26T01:32:45.280Z,26.57
2022-08-26T01:35:12.191Z,26.57
2022-08-26T01:37:40.981Z,26.42
2022-08-26T01:40:14.026Z,26.42
2022-08-26T01:42:44.468Z,26.29
2022-08-26T01:45:18.548Z,26.29
2022-08-26T01:47:48.940Z,26.40
2022-08-26T01:50:28.098Z,26.42
2022-08-26T01:53:00.548Z,26.40
2022-08-26T01:55:32.999Z,26.32
2022-08-26T01:58:05.570Z,26.24
2022-08-26T02:00:33.712Z,26.24
2022-08-26T02:03:21.403Z,26.21
2022-08-26T02:05:51.242Z,26.15
2022-08-26T02:08:24.609Z,26.28
2022-08-26T02:10:54.758Z,26.18
2022-08-26T02:13:23.285Z,26.16
2022-08-26T02:15:52.259Z,26.21
2022-08-26T02:18:19.456Z,26.18
2022-08-26T02:20:46.295Z,26.14
2022-08-26T02:23:13.029Z,26.26
2022-08-26T02:26:19.207Z,26.12
2022-08-26T02:29:24.543Z,26.07
2022-08-26T02:31:52.946Z,26.04
2022-08-26T02:34:32.029Z,26.12
2022-08-26T02:37:01.219Z,26.18
2022-08-26T02:39:29.632Z,26.08
2022-08-26T02:41:56.813Z,26.22
2022-08-26T02:44:23.701Z,26.20
2022-08-26T02:46:52.878Z,26.01
2022-08-26T02:49:21.886Z,25.99
2022-08-26T02:51:49.613Z,25.92
2022-08-26T02:54:17.601Z,25.91
2022-08-26T02:56:45.039Z,25.81
2022-08-26T02:59:14.579Z,25.72
2022-08-26T03:01:41.780Z,25.82
2022-08-26T03:04:12.235Z,25.39
2022-08-26T03:06:40.755Z,25.31
2022-08-26T03:09:09.092Z,25.10
2022-08-26T03:11:36.766Z,25.33
2022-08-26T03:14:04.565Z,25.26
2022-08-26T03:16:33.220Z,25.19
2022-08-26T03:19:01.051Z,24.99
2022-08-26T03:21:27.940Z,24.88
2022-08-26T03:23:54.911Z,24.96
2022-08-26T03:26:25.798Z,24.83
2022-08-26T03:29:11.027Z,24.86
2022-08-26T03:31:37.743Z,24.79
2022-08-26T03:34:04.711Z,25.01
2022-08-26T03:36:31.603Z,25.04
2022-08-26T03:38:58.582Z,24.71
2022-08-26T03:41:25.308Z,24.75
2022-08-26T03:43:52.334Z,24.78
2022-08-26T03:46:20.604Z,24.44
2022-08-26T03:48:48.132Z,24.17
2022-08-26T03:51:19.096Z,24.21
2022-08-26T03:53:46.963Z,24.41
2022-08-26T03:56:15.240Z,24.40
2022-08-26T03:58:44.396Z,24.60
2022-08-26T04:01:12.597Z,24.72
2022-08-26T04:03:57.794Z,24.76
2022-08-26T04:06:32.841Z,24.64
2022-08-26T04:09:01.920Z,24.56
2022-08-26T04:11:32.116Z,24.73
2022-08-26T04:14:04.350Z,24.70
2022-08-26T04:16:32.066Z,24.80
2022-08-26T04:18:58.988Z,24.81
2022-08-26T04:21:26.815Z,24.72
2022-08-26T04:23:54.039Z,24.53
2022-08-26T04:26:22.404Z,24.64
2022-08-26T04:28:51.002Z,24.69
2022-08-26T04:31:19.156Z,24.81
2022-08-26T04:33:49.732Z,24.82
2022-08-26T04:36:17.562Z,24.77
2022-08-26T04:38:47.009Z,24.80
2022-08-26T04:41:15.011Z,24.86
2022-08-26T04:43:44.078Z,24.63
2022-08-26T04:46:12.990Z,24.87
2022-08-26T04:48:41.158Z,24.87
2022-08-26T04:51:09.930Z,24.85
2022-08-26T04:53:37.551Z,24.65
2022-08-26T04:56:05.148Z,24.45
2022-08-26T04:58:32.321Z,24.63
2022-08-26T05:00:59.473Z,24.53
2022-08-26T05:03:28.305Z,24.67
2022-08-26T05:05:58.009Z,24.64
2022-08-26T05:08:25.174Z,24.63
2022-08-26T05:10:56.555Z,24.73
2022-08-26T05:13:26.297Z,24.92
2022-08-26T05:15:53.516Z,24.87
2022-08-26T05:18:23.096Z,24.87
2022-08-26T05:20:54.806Z,25.01
2022-08-26T05:23:23.365Z,25.03
2022-08-26T05:25:55.805Z,25.13
2022-08-26T05:28:26.291Z,25.10
2022-08-26T05:30:53.242Z,25.23
2022-08-26T05:33:20.168Z,25.26
2022-08-26T05:35:47.164Z,25.35
2022-08-26T05:38:17.620Z,25.37
2022-08-26T05:40:47.650Z,25.34
2022-08-26T05:43:14.975Z,25.22
2022-08-26T05:45:47.795Z,25.40
2022-08-26T05:48:18.225Z,25.38
2022-08-26T05:50:47.977Z,25.40
2022-08-26T05:53:17.425Z,25.37
2022-08-26T05:55:49.562Z,25.42
2022-08-26T05:58:17.386Z,25.53
2022-08-26T06:00:44.643Z,25.48
2022-08-26T06:03:11.719Z,25.63
2022-08-26T06:05:41.918Z,25.66
2022-08-26T06:08:13.611Z,25.65
2022-08-26T06:10:44.895Z,25.58
2022-08-26T06:13:13.609Z,25.60
2022-08-26T06:15:43.073Z,25.53
2022-08-26T06:18:11.276Z,25.61
2022-08-26T06:20:43.597Z,25.76
2022-08-26T06:23:40.451Z,25.87
2022-08-26T06:26:07.679Z,26.09
2022-08-26T06:28:37.833Z,26.12
2022-08-26T06:31:06.158Z,26.10
2022-08-26T06:33:33.100Z,26.09
2022-08-26T06:36:01.204Z,26.18
2022-08-26T06:38:28.335Z,26.34
2022-08-26T06:40:55.003Z,26.39
2022-08-26T06:43:24.568Z,26.40
2022-08-26T06:45:51.739Z,26.46
2022-08-26T06:48:20.469Z,26.41
2022-08-26T06:50:48.214Z,26.49
2022-08-26T06:53:17.071Z,26.53
2022-08-26T06:55:46.206Z,26.60
2022-08-26T06:58:14.432Z,26.61
2022-08-26T07:00:41.696Z,26.71
2022-08-26T07:03:14.423Z,26.71
2022-08-26T07:05:41.134Z,26.74
2022-08-26T07:08:08.059Z,26.80
2022-08-26T07:10:36.383Z,26.81
2022-08-26T07:13:03.001Z,26.96
2022-08-26T07:15:33.687Z,26.99
2022-08-26T07:18:00.357Z,27.07
2022-08-26T07:20:27.194Z,27.07
2022-08-26T07:22:54.137Z,27.07
2022-08-26T07:25:21.137Z,27.08
2022-08-26T07:27:54.369Z,27.19
2022-08-26T07:30:21.705Z,27.26
2022-08-26T07:32:48.410Z,27.18
2022-08-26T07:35:15.346Z,27.12
2022-08-26T07:37:42.984Z,27.12
2022-08-26T07:40:10.500Z,27.34
2022-08-26T07:42:37.367Z,27.33
2022-08-26T07:45:05.132Z,27.35
2022-08-26T07:47:31.763Z,27.43
2022-08-26T07:49:58.638Z,27.34
2022-08-26T07:52:28.060Z,27.40
2022-08-26T07:55:13.448Z,27.41
2022-08-26T07:57:40.339Z,27.38
2022-08-26T08:00:11.186Z,27.46
2022-08-26T08:02:38.066Z,27.51
2022-08-26T08:05:06.239Z,27.52
2022-08-26T08:07:44.513Z,27.42
2022-08-26T08:10:25.019Z,27.50
2022-08-26T08:12:53.162Z,27.51
2022-08-26T08:15:21.849Z,27.69
2022-08-26T08:17:50.428Z,27.58
2022-08-26T08:20:18.907Z,27.81
2022-08-26T08:22:46.085Z,27.79
2022-08-26T08:25:14.788Z,27.67
2022-08-26T08:27:43.293Z,27.76
2022-08-26T08:30:10.831Z,27.91
2022-08-26T08:32:41.300Z,27.94
2022-08-26T08:35:10.857Z,28.01
2022-08-26T08:37:38.393Z,27.84
2022-08-26T08:40:07.443Z,27.99
2022-08-26T08:42:46.951Z,28.04
2022-08-26T08:45:23.160Z,28.26
2022-08-26T08:47:58.463Z,28.26
2022-08-26T08:50:31.353Z,28.39
2022-08-26T08:53:02.340Z,28.33
2022-08-26T08:55:41.089Z,28.22
2022-08-26T08:58:13.537Z,28.23
2022-08-26T09:00:54.481Z,28.16
2022-08-26T09:03:38.195Z,28.38
2022-08-26T09:06:17.392Z,28.44
2022-08-26T09:08:47.277Z,28.42
2022-08-26T09:11:18.000Z,28.64
2022-08-26T09:13:50.207Z,28.60
2022-08-26T09:16:35.164Z,28.79
2022-08-26T09:19:08.768Z,28.70
2022-08-26T09:21:35.930Z,28.64
2022-08-26T09:24:02.830Z,28.70
2022-08-26T09:26:41.255Z,28.49
2022-08-26T09:29:26.898Z,28.35
2022-08-26T09:32:21.254Z,28.42
2022-08-26T09:35:22.782Z,28.22
2022-08-26T09:40:23.070Z,28.38
2022-08-26T09:43:16.051Z,28.53
2022-08-26T09:45:59.426Z,28.54
2022-08-26T09:48:34.798Z,28.92
2022-08-26T09:51:05.682Z,28.98
2022-08-26T09:53:51.280Z,28.75
2022-08-26T09:56:36.909Z,28.69
2022-08-26T09:59:10.994Z,29.12
2022-08-26T10:01:43.816Z,29.64
2022-08-26T10:04:20.115Z,29.87
2022-08-26T10:07:02.149Z,29.88
2022-08-26T10:09:29.947Z,30.18
2022-08-26T10:12:04.376Z,30.02
2022-08-26T10:14:37.292Z,29.60
2022-08-26T10:17:11.392Z,29.28
2022-08-26T10:19:56.549Z,29.42
2022-08-26T10:22:37.317Z,29.45
2022-08-26T10:25:08.151Z,29.42
2022-08-26T10:27:48.439Z,29.49
2022-08-26T10:30:24.385Z,29.32
2022-08-26T10:32:58.006Z,29.40
2022-08-26T10:35:27.159Z,29.62
2022-08-26T10:37:58.579Z,29.66
2022-08-26T10:40:29.457Z,29.79
2022-08-26T10:43:10.915Z,29.68
2022-08-26T10:45:47.063Z,29.55
2022-08-26T10:48:19.732Z,29.43
2022-08-26T10:50:48.187Z,29.35
2022-08-26T10:53:25.383Z,29.33
2022-08-26T10:56:25.014Z,29.44
2022-08-26T10:59:12.450Z,29.36
2022-08-26T11:01:46.955Z,29.32
2022-08-26T11:04:23.390Z,29.36
2022-08-26T11:07:32.474Z,29.60
2022-08-26T11:10:05.070Z,30.32
2022-08-26T11:12:34.681Z,30.44
2022-08-26T11:15:13.691Z,30.69
2022-08-26T11:17:46.525Z,31.01
2022-08-26T11:20:36.480Z,31.08
2022-08-26T11:23:27.389Z,30.77
2022-08-26T11:26:09.375Z,30.77
2022-08-26T11:28:35.915Z,31.08
2022-08-26T11:31:04.556Z,31.77
2022-08-26T11:33:59.145Z,32.16
2022-08-26T11:36:45.481Z,32.10
2022-08-26T11:39:18.079Z,32.02
2022-08-26T11:41:47.149Z,31.37
2022-08-26T11:44:40.009Z,31.52
2022-08-26T11:47:11.469Z,31.01
2022-08-26T11:49:38.801Z,30.61
2022-08-26T11:52:18.045Z,30.44
2022-08-26T11:55:08.870Z,30.63
2022-08-26T11:57:45.971Z,30.93
2022-08-26T12:00:26.462Z,31.36
2022-08-26T12:02:55.698Z,30.81
2022-08-26T12:05:31.151Z,30.65
2022-08-26T12:08:03.495Z,31.28
2022-08-26T12:10:33.839Z,31.79
2022-08-26T12:13:02.737Z,31.67
2022-08-26T12:15:32.854Z,31.47
2022-08-26T12:18:28.851Z,31.95
2022-08-26T12:20:58.014Z,31.44
2022-08-26T12:23:36.699Z,31.29
2022-08-26T12:26:26.268Z,31.26
2022-08-26T12:28:57.451Z,31.35
2022-08-26T12:31:44.426Z,31.73
2022-08-26T12:34:18.695Z,31.36
2022-08-26T12:39:29.744Z,30.95
2022-08-26T12:42:20.963Z,31.74
2022-08-26T12:44:58.594Z,31.64
2022-08-26T12:47:33.841Z,31.74
2022-08-26T12:50:26.557Z,32.75
2022-08-26T12:53:15.715Z,32.89
2022-08-26T12:55:49.111Z,33.37
2022-08-26T12:58:15.772Z,32.92
2022-08-26T13:00:51.403Z,32.17
2022-08-26T13:03:45.655Z,31.43
2022-08-26T13:06:27.865Z,31.23
2022-08-26T13:08:59.554Z,30.63
2022-08-26T13:11:41.551Z,30.36
2022-08-26T13:14:18.327Z,30.39
2022-08-26T13:16:49.358Z,30.30
2022-08-26T13:19:25.868Z,30.29
2022-08-26T13:21:57.473Z,30.27
2022-08-26T13:24:37.159Z,30.16
2022-08-26T13:27:05.762Z,30.21
2022-08-26T13:29:32.658Z,30.47
2022-08-26T13:32:00.229Z,30.22
2022-08-26T13:34:29.939Z,30.30
2022-08-26T13:36:57.988Z,30.10
2022-08-26T13:39:26.654Z,30.28
2022-08-26T13:41:53.815Z,30.75
2022-08-26T13:44:21.645Z,30.60
2022-08-26T13:46:48.439Z,30.79
2022-08-26T13:49:15.591Z,30.50
2022-08-26T13:51:42.667Z,30.52
2022-08-26T13:54:09.457Z,31.12
2022-08-26T13:56:37.559Z,31.06
2022-08-26T13:59:04.817Z,31.16
2022-08-26T14:01:33.028Z,30.91
2022-08-26T14:03:59.772Z,31.03
2022-08-26T14:06:26.756Z,31.31
2022-08-26T14:08:53.503Z,31.78
2022-08-26T14:11:21.480Z,31.87
2022-08-26T14:13:50.836Z,31.65
2022-08-26T14:16:25.939Z,31.44
2022-08-26T14:18:53.096Z,31.12
2022-08-26T14:21:20.375Z,30.83
2022-08-26T14:23:47.139Z,30.45
2022-08-26T14:26:28.890Z,30.23
2022-08-26T14:29:01.538Z,30.36
2022-08-26T14:31:31.773Z,30.53
2022-08-26T14:34:06.004Z,30.31
2022-08-26T14:36:33.308Z,30.15
2022-08-26T14:39:06.130Z,29.91
2022-08-26T14:41:35.445Z,29.70
2022-08-26T14:44:06.008Z,29.61
2022-08-26T14:46:38.668Z,29.82
2022-08-26T14:49:09.906Z,29.77
2022-08-26T14:51:37.283Z,29.70
2022-08-26T14:54:12.831Z,29.80
2022-08-26T14:57:02.282Z,30.02
2022-08-26T14:59:35.374Z,29.94
2022-08-26T15:02:02.329Z,29.83
2022-08-26T15:04:32.036Z,29.60
2022-08-26T15:07:00.678Z,29.59
2022-08-26T15:09:29.075Z,29.59
2022-08-26T15:11:56.259Z,29.59
2022-08-26T15:14:25.443Z,29.58
2022-08-26T15:16:56.278Z,29.53
2022-08-26T15:19:27.455Z,30.40
2022-08-26T15:21:54.953Z,30.26
2022-08-26T15:24:25.163Z,30.05
2022-08-26T15:26:53.243Z,29.90
2022-08-26T15:29:20.883Z,29.71
2022-08-26T15:31:48.828Z,29.69
2022-08-26T15:34:16.960Z,29.82
2022-08-26T15:36:46.033Z,30.04
2022-08-26T15:39:13.710Z,30.31
2022-08-26T15:41:42.389Z,30.43
2022-08-26T15:44:10.912Z,30.49
2022-08-26T15:46:38.424Z,30.54
2022-08-26T15:49:05.933Z,30.55
2022-08-26T15:51:45.624Z,30.67
2022-08-26T15:54:16.356Z,30.76
2022-08-26T15:56:43.539Z,30.78
2022-08-26T15:59:11.814Z,30.62
2022-08-26T16:01:39.918Z,30.36
2022-08-26T16:04:06.751Z,30.40
2022-08-26T16:06:35.719Z,30.09
2022-08-26T16:09:04.864Z,30.19
2022-08-26T16:11:36.070Z,30.10
2022-08-26T16:14:04.623Z,30.03
2022-08-26T16:16:32.682Z,30.01
2022-08-26T16:19:07.363Z,30.26
2022-08-26T16:21:35.366Z,30.60
2022-08-26T16:24:03.816Z,30.82
2022-08-26T16:26:33.368Z,30.92
2022-08-26T16:29:06.785Z,30.69
2022-08-26T16:31:33.914Z,30.80
2022-08-26T16:34:00.778Z,30.72
2022-08-26T16:36:27.579Z,31.03
2022-08-26T16:38:56.527Z,31.02
2022-08-26T16:41:29.935Z,31.13
2022-08-26T16:43:57.642Z,31.21
2022-08-26T16:46:26.269Z,31.05
2022-08-26T16:48:58.026Z,30.79
2022-08-26T16:51:27.164Z,30.80
2022-08-26T16:53:56.349Z,30.93
2022-08-26T16:56:33.547Z,31.11
2022-08-26T16:59:02.878Z,31.02
2022-08-26T17:01:30.104Z,30.97
2022-08-26T17:03:57.185Z,30.85
2022-08-26T17:06:23.927Z,30.73
2022-08-26T17:08:50.598Z,30.43
2022-08-26T17:11:17.356Z,30.40
2022-08-26T17:13:44.206Z,30.30
2022-08-26T17:16:12.739Z,30.24
2022-08-26T17:18:39.638Z,30.39
2022-08-26T17:21:10.052Z,30.36
2022-08-26T17:23:37.984Z,30.24
2022-08-26T17:26:05.997Z,30.07
2022-08-26T17:28:33.369Z,29.85
2022-08-26T17:31:01.103Z,29.77
2022-08-26T17:33:28.872Z,29.73
2022-08-26T17:35:56.202Z,29.64
2022-08-26T17:38:23.716Z,29.62
2022-08-26T17:40:51.230Z,29.65
2022-08-26T17:43:18.805Z,29.51
2022-08-26T17:45:45.961Z,29.53
2022-08-26T17:48:13.872Z,29.43
2022-08-26T17:50:42.717Z,29.43
2022-08-26T17:53:12.629Z,29.35
2022-08-26T17:55:47.174Z,29.42
2022-08-26T17:58:14.919Z,29.43
2022-08-26T18:00:51.113Z,29.36
2022-08-26T18:03:19.307Z,29.24
2022-08-26T18:05:52.640Z,29.11
2022-08-26T18:08:20.718Z,29.06
2022-08-26T18:10:48.371Z,29.03
2022-08-26T18:13:15.542Z,29.02
2022-08-26T18:15:45.490Z,29.05
2022-08-26T18:18:14.655Z,29.12
2022-08-26T18:20:43.208Z,28.96
2022-08-26T18:23:11.010Z,28.92
2022-08-26T18:25:43.465Z,28.87
2022-08-26T18:28:10.813Z,28.80
2022-08-26T18:30:37.991Z,28.87
2022-08-26T18:33:05.155Z,28.95
2022-08-26T18:35:32.621Z,29.23
2022-08-26T18:38:05.195Z,29.46
2022-08-26T18:40:44.756Z,29.55
2022-08-26T18:43:12.649Z,29.41
2022-08-26T18:45:40.370Z,29.30
2022-08-26T18:48:07.367Z,29.26
2022-08-26T18:50:38.202Z,29.41
2022-08-26T18:53:04.976Z,29.35
2022-08-26T18:55:31.831Z,29.32
2022-08-26T18:58:01.769Z,29.42
2022-08-26T19:00:28.677Z,29.42
2022-08-26T19:02:56.000Z,29.39
2022-08-26T19:05:25.777Z,29.28
2022-08-26T19:07:53.011Z,29.27
2022-08-26T19:10:20.466Z,29.20
2022-08-26T19:12:51.860Z,29.03
2022-08-26T19:15:19.499Z,28.99
2022-08-26T19:17:50.373Z,29.07
2022-08-26T19:20:17.867Z,29.01
2022-08-26T19:22:46.167Z,28.96
2022-08-26T19:25:14.248Z,28.94
2022-08-26T19:27:41.978Z,28.96
2022-08-26T19:30:09.934Z,29.11
2022-08-26T19:32:36.967Z,29.09
2022-08-26T19:35:04.375Z,29.08
2022-08-26T19:37:31.285Z,29.05
2022-08-26T19:39:58.518Z,29.10
2022-08-26T19:42:26.510Z,29.13
2022-08-26T19:45:24.669Z,29.17
2022-08-26T19:47:54.218Z,29.05
2022-08-26T19:50:22.621Z,29.03
2022-08-26T19:52:50.031Z,29.07
2022-08-26T19:55:18.832Z,29.08
2022-08-26T19:57:45.866Z,29.03
2022-08-26T20:00:18.325Z,28.99
2022-08-26T20:02:45.971Z,29.05
2022-08-26T20:05:14.142Z,28.95
2022-08-26T20:07:41.793Z,29.00
2022-08-26T20:10:12.911Z,29.04
2022-08-26T20:12:42.350Z,28.92
2022-08-26T20:15:12.338Z,29.01
2022-08-26T20:17:41.087Z,29.09
2022-08-26T20:20:33.226Z,28.99
2022-08-26T20:23:03.697Z,28.95
2022-08-26T20:25:33.060Z,28.94
2022-08-26T20:28:03.573Z,28.93
2022-08-26T20:30:31.269Z,28.93
2022-08-26T20:32:58.030Z,28.80
2022-08-26T20:35:25.504Z,28.82
2022-08-26T20:37:54.053Z,28.80
2022-08-26T20:40:23.518Z,28.69
2022-08-26T20:42:50.752Z,28.69
2022-08-26T20:45:17.791Z,28.67
2022-08-26T20:47:44.949Z,28.57
2022-08-26T20:50:11.701Z,28.55
2022-08-26T20:52:38.557Z,28.54
2022-08-26T20:55:05.817Z,28.54
2022-08-26T20:57:33.240Z,28.66
2022-08-26T21:00:01.270Z,28.74
2022-08-26T21:02:28.374Z,28.60
2022-08-26T21:04:56.433Z,28.56
2022-08-26T21:07:23.369Z,28.55
2022-08-26T21:09:50.037Z,28.57
2022-08-26T21:12:18.431Z,28.50
2022-08-26T21:14:49.426Z,28.50
2022-08-26T21:17:16.707Z,28.55
2022-08-26T21:19:44.526Z,28.50
2022-08-26T21:22:12.494Z,28.48
2022-08-26T21:24:39.228Z,28.48
2022-08-26T21:27:05.995Z,28.49
2022-08-26T21:29:32.734Z,28.41
2022-08-26T21:31:59.472Z,28.65
2022-08-26T21:34:26.946Z,28.47
2022-08-26T21:36:53.715Z,28.40
2022-08-26T21:39:20.456Z,28.33
2022-08-26T21:41:47.474Z,28.33
2022-08-26T21:44:16.092Z,28.34
2022-08-26T21:46:44.734Z,28.26
2022-08-26T21:49:13.954Z,28.34
2022-08-26T21:51:44.206Z,28.29
2022-08-26T21:54:12.256Z,28.30
2022-08-26T21:56:44.289Z,28.27
2022-08-26T21:59:11.380Z,28.19
2022-08-26T22:01:38.233Z,28.15
2022-08-26T22:04:08.365Z,28.12
2022-08-26T22:06:40.713Z,28.15
2022-08-26T22:09:07.558Z,28.08
2022-08-26T22:11:34.386Z,28.09
2022-08-26T22:14:01.172Z,28.09
2022-08-26T22:16:28.921Z,28.13
2022-08-26T22:18:55.842Z,28.10
2022-08-26T22:21:25.998Z,28.14
2022-08-26T22:23:57.968Z,28.05
2022-08-26T22:26:28.861Z,28.12
2022-08-26T22:28:58.967Z,28.09
2022-08-26T22:31:36.917Z,27.94
2022-08-26T22:34:10.043Z,27.99
2022-08-26T22:36:39.805Z,27.93
2022-08-26T22:39:11.851Z,27.93
2022-08-26T22:41:38.591Z,27.96
2022-08-26T22:44:05.848Z,27.84
2022-08-26T22:46:34.902Z,27.77
2022-08-26T22:49:01.714Z,27.77
2022-08-26T22:51:28.878Z,28.05
2022-08-26T22:53:55.672Z,27.84
2022-08-26T22:56:22.604Z,27.81
2022-08-26T22:58:49.374Z,27.84
2022-08-26T23:01:17.061Z,27.99
2022-08-26T23:03:44.459Z,27.79
2022-08-26T23:06:11.499Z,27.82
2022-08-26T23:08:39.600Z,27.76
2022-08-26T23:11:11.257Z,27.75
2022-08-26T23:13:39.165Z,27.69
2022-08-26T23:16:09.360Z,27.73
2022-08-26T23:18:36.515Z,27.60
2022-08-26T23:21:03.597Z,27.62
2022-08-26T23:23:31.244Z,27.49
2022-08-26T23:25:58.483Z,27.60
2022-08-26T23:28:26.476Z,27.68
2022-08-26T23:30:54.430Z,27.79
2022-08-26T23:33:21.627Z,27.75
2022-08-26T23:35:48.467Z,27.71
2022-08-26T23:38:16.671Z,27.60
2022-08-26T23:40:43.435Z,27.51
2022-08-26T23:43:13.866Z,27.49
2022-08-26T23:45:40.763Z,27.49
2022-08-26T23:48:08.060Z,27.57
2022-08-26T23:50:53.257Z,27.40
2022-08-26T23:53:22.409Z,27.44
2022-08-26T23:55:51.370Z,27.37
2022-08-26T23:58:19.979Z,27.46
